Terminal Aerodrome Forecast
Issued by NWS Cleveland, OH

Home | Current Version | Previous Version | Graphics & Text | Print | Product List | Glossary On
Versions: 1 2 3 4 5 6 7 8 9 10 11 12 13 14 15 16 17
000
FTUS41 KCLE 170500
TAFCAK
TAF
KCAK 170540Z 1706/1806 20008KT P6SM VCSH OVC025
      TEMPO 1706/1710 6SM -SHRA BKN025
     FM171100 25005KT P6SM OVC008
     FM171500 29008KT P6SM SCT008 OVC014
     FM172000 30006KT P6SM SCT025
     FM180000 VRB03KT P6SM SKC=

USA.gov is the U.S. government's official web portal to all federal, state and local government web resources and services.